sensor_id;sensor_type;location;lat;lon;timestamp;P1;durP1;ratioP1;P2;durP2;ratioP2
38499;SDS011;24269;51.894;4.622;2023-02-15T00:01:55;45.83;;;20.65;;
38499;SDS011;24269;51.894;4.622;2023-02-15T00:04:23;41.13;;;19.75;;
38499;SDS011;24269;51.894;4.622;2023-02-15T00:07:10;45.70;;;21.23;;
38499;SDS011;24269;51.894;4.622;2023-02-15T00:09:35;44.30;;;21.25;;
38499;SDS011;24269;51.894;4.622;2023-02-15T00:12:01;42.35;;;20.85;;
38499;SDS011;24269;51.894;4.622;2023-02-15T00:14:26;42.15;;;19.35;;
38499;SDS011;24269;51.894;4.622;2023-02-15T00:16:52;44.47;;;21.90;;
38499;SDS011;24269;51.894;4.622;2023-02-15T00:19:19;46.17;;;20.70;;
38499;SDS011;24269;51.894;4.622;2023-02-15T00:21:46;42.83;;;20.52;;
38499;SDS011;24269;51.894;4.622;2023-02-15T00:24:14;44.85;;;20.55;;
38499;SDS011;24269;51.894;4.622;2023-02-15T00:26:41;44.80;;;21.05;;
38499;SDS011;24269;51.894;4.622;2023-02-15T00:29:08;47.25;;;23.17;;
38499;SDS011;24269;51.894;4.622;2023-02-15T00:31:34;47.78;;;23.02;;
38499;SDS011;24269;51.894;4.622;2023-02-15T00:34:01;50.08;;;21.83;;
38499;SDS011;24269;51.894;4.622;2023-02-15T00:36:28;43.65;;;21.45;;
38499;SDS011;24269;51.894;4.622;2023-02-15T00:38:54;42.42;;;20.77;;
38499;SDS011;24269;51.894;4.622;2023-02-15T00:41:19;42.58;;;20.15;;
38499;SDS011;24269;51.894;4.622;2023-02-15T00:43:45;41.25;;;20.33;;
38499;SDS011;24269;51.894;4.622;2023-02-15T00:46:11;50.30;;;22.15;;
38499;SDS011;24269;51.894;4.622;2023-02-15T00:48:36;41.45;;;19.77;;
38499;SDS011;24269;51.894;4.622;2023-02-15T00:51:02;45.53;;;20.20;;
38499;SDS011;24269;51.894;4.622;2023-02-15T00:53:34;49.22;;;21.00;;
38499;SDS011;24269;51.894;4.622;2023-02-15T00:55:59;46.72;;;21.05;;
38499;SDS011;24269;51.894;4.622;2023-02-15T00:58:25;43.80;;;20.52;;
38499;SDS011;24269;51.894;4.622;2023-02-15T01:00:51;42.45;;;20.95;;
38499;SDS011;24269;51.894;4.622;2023-02-15T01:03:17;38.97;;;18.98;;
38499;SDS011;24269;51.894;4.622;2023-02-15T01:05:44;45.80;;;21.25;;
38499;SDS011;24269;51.894;4.622;2023-02-15T01:08:11;45.05;;;21.33;;
38499;SDS011;24269;51.894;4.622;2023-02-15T01:10:36;39.58;;;18.40;;
38499;SDS011;24269;51.894;4.622;2023-02-15T01:13:02;36.08;;;17.90;;
38499;SDS011;24269;51.894;4.622;2023-02-15T01:15:28;40.83;;;19.17;;
38499;SDS011;24269;51.894;4.622;2023-02-15T01:17:54;38.17;;;19.15;;
38499;SDS011;24269;51.894;4.622;2023-02-15T01:20:21;39.90;;;18.40;;
38499;SDS011;24269;51.894;4.622;2023-02-15T01:22:48;40.38;;;19.63;;
38499;SDS011;24269;51.894;4.622;2023-02-15T01:25:15;35.83;;;17.95;;
38499;SDS011;24269;51.894;4.622;2023-02-15T01:27:42;35.85;;;17.63;;
38499;SDS011;24269;51.894;4.622;2023-02-15T01:30:08;32.75;;;16.88;;
38499;SDS011;24269;51.894;4.622;2023-02-15T01:32:34;33.92;;;15.88;;
38499;SDS011;24269;51.894;4.622;2023-02-15T01:35:00;33.65;;;16.10;;
38499;SDS011;24269;51.894;4.622;2023-02-15T01:37:25;30.52;;;15.20;;
38499;SDS011;24269;51.894;4.622;2023-02-15T01:39:54;30.67;;;16.00;;
38499;SDS011;24269;51.894;4.622;2023-02-15T01:42:23;34.63;;;16.83;;
38499;SDS011;24269;51.894;4.622;2023-02-15T01:44:50;27.45;;;15.25;;
38499;SDS011;24269;51.894;4.622;2023-02-15T01:47:45;26.75;;;14.38;;
38499;SDS011;24269;51.894;4.622;2023-02-15T01:50:17;25.15;;;14.20;;
38499;SDS011;24269;51.894;4.622;2023-02-15T01:52:55;24.88;;;13.55;;
38499;SDS011;24269;51.894;4.622;2023-02-15T01:55:33;25.88;;;13.25;;
38499;SDS011;24269;51.894;4.622;2023-02-15T01:58:11;22.85;;;13.15;;
38499;SDS011;24269;51.894;4.622;2023-02-15T02:00:38;22.65;;;13.32;;
38499;SDS011;24269;51.894;4.622;2023-02-15T02:03:04;27.02;;;12.60;;
38499;SDS011;24269;51.894;4.622;2023-02-15T02:05:30;23.77;;;12.88;;
38499;SDS011;24269;51.894;4.622;2023-02-15T02:07:58;21.98;;;11.75;;
38499;SDS011;24269;51.894;4.622;2023-02-15T02:10:26;27.65;;;13.50;;
38499;SDS011;24269;51.894;4.622;2023-02-15T02:12:52;22.02;;;13.15;;
38499;SDS011;24269;51.894;4.622;2023-02-15T02:15:24;27.77;;;12.50;;
38499;SDS011;24269;51.894;4.622;2023-02-15T02:18:44;27.98;;;13.23;;
38499;SDS011;24269;51.894;4.622;2023-02-15T02:34:36;25.27;;;11.90;;
38499;SDS011;24269;51.894;4.622;2023-02-15T02:45:05;21.75;;;12.10;;
38499;SDS011;24269;51.894;4.622;2023-02-15T02:47:35;19.50;;;10.57;;
38499;SDS011;24269;51.894;4.622;2023-02-15T02:50:06;21.58;;;12.15;;
38499;SDS011;24269;51.894;4.622;2023-02-15T02:55:03;20.17;;;10.65;;
38499;SDS011;24269;51.894;4.622;2023-02-15T03:00:25;16.85;;;10.23;;
38499;SDS011;24269;51.894;4.622;2023-02-15T03:02:56;18.00;;;10.05;;
38499;SDS011;24269;51.894;4.622;2023-02-15T03:05:30;19.27;;;10.38;;
38499;SDS011;24269;51.894;4.622;2023-02-15T03:07:57;19.55;;;11.10;;
38499;SDS011;24269;51.894;4.622;2023-02-15T03:10:31;16.15;;;9.70;;
38499;SDS011;24269;51.894;4.622;2023-02-15T03:13:00;18.67;;;10.52;;
38499;SDS011;24269;51.894;4.622;2023-02-15T03:15:29;19.73;;;10.52;;
38499;SDS011;24269;51.894;4.622;2023-02-15T03:18:22;15.82;;;10.32;;
38499;SDS011;24269;51.894;4.622;2023-02-15T03:20:52;18.83;;;10.25;;
38499;SDS011;24269;51.894;4.622;2023-02-15T03:23:21;21.02;;;11.07;;
38499;SDS011;24269;51.894;4.622;2023-02-15T03:25:54;16.00;;;10.20;;
38499;SDS011;24269;51.894;4.622;2023-02-15T03:28:30;18.15;;;10.50;;
38499;SDS011;24269;51.894;4.622;2023-02-15T03:31:06;16.67;;;9.82;;
38499;SDS011;24269;51.894;4.622;2023-02-15T03:33:34;17.35;;;10.48;;
38499;SDS011;24269;51.894;4.622;2023-02-15T03:36:10;18.48;;;10.52;;
38499;SDS011;24269;51.894;4.622;2023-02-15T03:41:30;21.10;;;10.38;;
38499;SDS011;24269;51.894;4.622;2023-02-15T03:44:06;21.02;;;10.60;;
38499;SDS011;24269;51.894;4.622;2023-02-15T03:46:44;17.27;;;9.80;;
38499;SDS011;24269;51.894;4.622;2023-02-15T03:49:22;19.23;;;10.20;;
38499;SDS011;24269;51.894;4.622;2023-02-15T03:51:54;20.63;;;10.60;;
38499;SDS011;24269;51.894;4.622;2023-02-15T03:54:26;26.83;;;12.13;;
38499;SDS011;24269;51.894;4.622;2023-02-15T04:05:44;28.00;;;12.85;;
38499;SDS011;24269;51.894;4.622;2023-02-15T04:08:09;27.77;;;13.18;;
38499;SDS011;24269;51.894;4.622;2023-02-15T04:10:35;25.45;;;13.20;;
38499;SDS011;24269;51.894;4.622;2023-02-15T04:13:24;29.15;;;13.88;;
38499;SDS011;24269;51.894;4.622;2023-02-15T04:15:59;33.53;;;14.55;;
38499;SDS011;24269;51.894;4.622;2023-02-15T04:18:28;33.45;;;13.48;;
38499;SDS011;24269;51.894;4.622;2023-02-15T04:21:27;31.40;;;15.15;;
38499;SDS011;24269;51.894;4.622;2023-02-15T04:24:13;30.42;;;15.23;;
38499;SDS011;24269;51.894;4.622;2023-02-15T04:26:58;31.17;;;14.45;;
38499;SDS011;24269;51.894;4.622;2023-02-15T04:29:24;31.80;;;14.43;;
38499;SDS011;24269;51.894;4.622;2023-02-15T04:31:52;34.72;;;16.52;;
38499;SDS011;24269;51.894;4.622;2023-02-15T04:34:18;33.38;;;15.20;;
38499;SDS011;24269;51.894;4.622;2023-02-15T04:36:44;34.63;;;15.52;;
38499;SDS011;24269;51.894;4.622;2023-02-15T04:39:13;34.20;;;15.57;;
38499;SDS011;24269;51.894;4.622;2023-02-15T04:41:40;36.88;;;15.65;;
38499;SDS011;24269;51.894;4.622;2023-02-15T04:44:06;32.72;;;16.08;;
38499;SDS011;24269;51.894;4.622;2023-02-15T04:46:32;40.60;;;16.90;;
38499;SDS011;24269;51.894;4.622;2023-02-15T04:48:57;32.42;;;16.08;;
38499;SDS011;24269;51.894;4.622;2023-02-15T04:51:23;35.10;;;15.88;;
38499;SDS011;24269;51.894;4.622;2023-02-15T04:53:49;35.28;;;17.00;;
38499;SDS011;24269;51.894;4.622;2023-02-15T04:56:15;33.08;;;15.57;;
38499;SDS011;24269;51.894;4.622;2023-02-15T04:58:40;36.25;;;16.58;;
38499;SDS011;24269;51.894;4.622;2023-02-15T05:01:09;36.60;;;17.33;;
38499;SDS011;24269;51.894;4.622;2023-02-15T05:03:35;33.72;;;16.77;;
38499;SDS011;24269;51.894;4.622;2023-02-15T05:06:01;36.78;;;17.33;;
38499;SDS011;24269;51.894;4.622;2023-02-15T05:08:27;34.63;;;17.73;;
38499;SDS011;24269;51.894;4.622;2023-02-15T05:10:53;37.80;;;18.42;;
38499;SDS011;24269;51.894;4.622;2023-02-15T05:13:19;36.65;;;17.85;;
38499;SDS011;24269;51.894;4.622;2023-02-15T05:15:48;36.80;;;17.75;;
38499;SDS011;24269;51.894;4.622;2023-02-15T05:18:15;35.80;;;17.58;;
38499;SDS011;24269;51.894;4.622;2023-02-15T05:20:41;35.92;;;17.08;;
38499;SDS011;24269;51.894;4.622;2023-02-15T05:23:07;33.53;;;17.35;;
38499;SDS011;24269;51.894;4.622;2023-02-15T05:25:33;33.00;;;16.63;;
38499;SDS011;24269;51.894;4.622;2023-02-15T05:28:17;29.98;;;15.43;;
38499;SDS011;24269;51.894;4.622;2023-02-15T05:30:49;32.33;;;15.65;;
38499;SDS011;24269;51.894;4.622;2023-02-15T05:33:25;30.52;;;15.93;;
38499;SDS011;24269;51.894;4.622;2023-02-15T05:35:50;28.15;;;15.38;;
38499;SDS011;24269;51.894;4.622;2023-02-15T05:38:16;34.30;;;16.98;;
38499;SDS011;24269;51.894;4.622;2023-02-15T05:40:41;35.22;;;15.90;;
38499;SDS011;24269;51.894;4.622;2023-02-15T05:43:07;30.45;;;15.35;;
38499;SDS011;24269;51.894;4.622;2023-02-15T05:45:33;33.08;;;16.15;;
38499;SDS011;24269;51.894;4.622;2023-02-15T05:47:58;29.77;;;14.65;;
38499;SDS011;24269;51.894;4.622;2023-02-15T05:50:24;36.35;;;16.35;;
38499;SDS011;24269;51.894;4.622;2023-02-15T05:52:50;27.75;;;14.70;;
38499;SDS011;24269;51.894;4.622;2023-02-15T05:55:16;32.70;;;15.50;;
38499;SDS011;24269;51.894;4.622;2023-02-15T05:57:42;33.45;;;15.55;;
38499;SDS011;24269;51.894;4.622;2023-02-15T06:00:08;31.67;;;16.02;;
38499;SDS011;24269;51.894;4.622;2023-02-15T06:02:35;29.80;;;16.02;;
38499;SDS011;24269;51.894;4.622;2023-02-15T06:05:01;38.95;;;17.13;;
38499;SDS011;24269;51.894;4.622;2023-02-15T06:07:27;35.13;;;16.42;;
38499;SDS011;24269;51.894;4.622;2023-02-15T06:09:53;29.67;;;14.80;;
38499;SDS011;24269;51.894;4.622;2023-02-15T06:12:19;33.20;;;16.40;;
38499;SDS011;24269;51.894;4.622;2023-02-15T06:14:44;36.90;;;16.60;;
38499;SDS011;24269;51.894;4.622;2023-02-15T06:17:10;31.85;;;15.48;;
38499;SDS011;24269;51.894;4.622;2023-02-15T06:19:36;33.10;;;15.07;;
38499;SDS011;24269;51.894;4.622;2023-02-15T06:22:02;31.98;;;15.35;;
38499;SDS011;24269;51.894;4.622;2023-02-15T06:24:27;38.05;;;16.88;;
38499;SDS011;24269;51.894;4.622;2023-02-15T06:26:53;32.58;;;15.98;;
38499;SDS011;24269;51.894;4.622;2023-02-15T06:29:19;34.38;;;15.77;;
38499;SDS011;24269;51.894;4.622;2023-02-15T06:31:44;32.92;;;15.88;;
38499;SDS011;24269;51.894;4.622;2023-02-15T06:34:10;29.92;;;15.50;;
38499;SDS011;24269;51.894;4.622;2023-02-15T06:36:35;39.20;;;17.30;;
38499;SDS011;24269;51.894;4.622;2023-02-15T06:39:02;36.20;;;16.83;;
38499;SDS011;24269;51.894;4.622;2023-02-15T06:41:28;38.50;;;17.45;;
38499;SDS011;24269;51.894;4.622;2023-02-15T06:43:53;44.97;;;18.63;;
38499;SDS011;24269;51.894;4.622;2023-02-15T06:46:19;39.25;;;18.50;;
38499;SDS011;24269;51.894;4.622;2023-02-15T06:48:45;45.45;;;18.73;;
38499;SDS011;24269;51.894;4.622;2023-02-15T06:51:10;38.50;;;18.65;;
38499;SDS011;24269;51.894;4.622;2023-02-15T06:53:36;43.22;;;19.45;;
38499;SDS011;24269;51.894;4.622;2023-02-15T06:58:33;40.83;;;18.77;;
38499;SDS011;24269;51.894;4.622;2023-02-15T07:01:03;37.53;;;18.70;;
38499;SDS011;24269;51.894;4.622;2023-02-15T07:03:29;45.25;;;18.02;;
38499;SDS011;24269;51.894;4.622;2023-02-15T07:05:56;44.05;;;20.63;;
38499;SDS011;24269;51.894;4.622;2023-02-15T07:08:22;42.70;;;19.35;;
38499;SDS011;24269;51.894;4.622;2023-02-15T07:10:49;42.42;;;18.65;;
38499;SDS011;24269;51.894;4.622;2023-02-15T07:13:16;45.97;;;19.67;;
38499;SDS011;24269;51.894;4.622;2023-02-15T07:15:41;44.25;;;19.13;;
38499;SDS011;24269;51.894;4.622;2023-02-15T07:18:07;40.97;;;19.00;;
38499;SDS011;24269;51.894;4.622;2023-02-15T07:20:34;40.45;;;18.10;;
38499;SDS011;24269;51.894;4.622;2023-02-15T07:23:00;42.70;;;19.65;;
38499;SDS011;24269;51.894;4.622;2023-02-15T07:25:26;46.35;;;21.35;;
38499;SDS011;24269;51.894;4.622;2023-02-15T07:27:59;42.70;;;19.25;;
38499;SDS011;24269;51.894;4.622;2023-02-15T07:30:26;43.33;;;18.95;;
38499;SDS011;24269;51.894;4.622;2023-02-15T07:32:56;50.63;;;20.90;;
38499;SDS011;24269;51.894;4.622;2023-02-15T07:35:47;43.78;;;21.33;;
38499;SDS011;24269;51.894;4.622;2023-02-15T07:38:16;37.10;;;18.73;;
38499;SDS011;24269;51.894;4.622;2023-02-15T07:40:43;41.72;;;19.23;;
38499;SDS011;24269;51.894;4.622;2023-02-15T07:43:09;45.00;;;19.08;;
38499;SDS011;24269;51.894;4.622;2023-02-15T07:45:35;46.88;;;19.20;;
38499;SDS011;24269;51.894;4.622;2023-02-15T07:48:01;44.15;;;20.10;;
38499;SDS011;24269;51.894;4.622;2023-02-15T07:50:27;41.03;;;20.02;;
38499;SDS011;24269;51.894;4.622;2023-02-15T07:52:52;49.10;;;20.00;;
38499;SDS011;24269;51.894;4.622;2023-02-15T07:55:18;42.03;;;19.67;;
38499;SDS011;24269;51.894;4.622;2023-02-15T07:57:44;43.60;;;20.10;;
38499;SDS011;24269;51.894;4.622;2023-02-15T08:00:11;45.28;;;21.02;;
38499;SDS011;24269;51.894;4.622;2023-02-15T08:02:38;48.60;;;21.13;;
38499;SDS011;24269;51.894;4.622;2023-02-15T08:05:04;43.55;;;19.75;;
38499;SDS011;24269;51.894;4.622;2023-02-15T08:07:30;48.88;;;22.42;;
38499;SDS011;24269;51.894;4.622;2023-02-15T08:09:56;48.13;;;20.40;;
38499;SDS011;24269;51.894;4.622;2023-02-15T08:12:21;56.15;;;23.55;;
38499;SDS011;24269;51.894;4.622;2023-02-15T08:14:47;45.13;;;21.80;;
38499;SDS011;24269;51.894;4.622;2023-02-15T08:17:12;53.08;;;22.23;;
38499;SDS011;24269;51.894;4.622;2023-02-15T08:19:38;52.47;;;23.55;;
38499;SDS011;24269;51.894;4.622;2023-02-15T08:22:04;52.15;;;23.30;;
38499;SDS011;24269;51.894;4.622;2023-02-15T08:24:32;53.28;;;23.58;;
38499;SDS011;24269;51.894;4.622;2023-02-15T08:26:59;54.75;;;24.60;;
38499;SDS011;24269;51.894;4.622;2023-02-15T08:29:27;54.38;;;23.13;;
38499;SDS011;24269;51.894;4.622;2023-02-15T08:31:55;56.63;;;24.20;;
38499;SDS011;24269;51.894;4.622;2023-02-15T08:34:24;57.50;;;24.63;;
38499;SDS011;24269;51.894;4.622;2023-02-15T08:36:50;63.50;;;25.92;;
38499;SDS011;24269;51.894;4.622;2023-02-15T08:39:16;54.92;;;25.05;;
38499;SDS011;24269;51.894;4.622;2023-02-15T08:41:43;58.92;;;24.67;;
38499;SDS011;24269;51.894;4.622;2023-02-15T08:44:10;54.72;;;24.73;;
38499;SDS011;24269;51.894;4.622;2023-02-15T08:46:39;61.30;;;25.40;;
38499;SDS011;24269;51.894;4.622;2023-02-15T08:49:06;62.22;;;28.70;;
38499;SDS011;24269;51.894;4.622;2023-02-15T08:51:33;59.67;;;27.58;;
38499;SDS011;24269;51.894;4.622;2023-02-15T08:54:01;63.65;;;27.17;;
38499;SDS011;24269;51.894;4.622;2023-02-15T08:56:29;58.97;;;26.15;;
38499;SDS011;24269;51.894;4.622;2023-02-15T08:58:58;61.55;;;26.63;;
38499;SDS011;24269;51.894;4.622;2023-02-15T09:01:28;59.53;;;25.90;;
38499;SDS011;24269;51.894;4.622;2023-02-15T09:03:58;61.65;;;27.83;;
38499;SDS011;24269;51.894;4.622;2023-02-15T09:06:26;60.00;;;26.73;;
38499;SDS011;24269;51.894;4.622;2023-02-15T09:08:54;51.53;;;24.20;;
38499;SDS011;24269;51.894;4.622;2023-02-15T09:11:24;54.58;;;25.08;;
38499;SDS011;24269;51.894;4.622;2023-02-15T09:14:05;53.88;;;24.70;;
38499;SDS011;24269;51.894;4.622;2023-02-15T09:18:59;43.75;;;21.95;;
38499;SDS011;24269;51.894;4.622;2023-02-15T09:21:32;45.28;;;22.58;;
38499;SDS011;24269;51.894;4.622;2023-02-15T09:24:02;48.10;;;22.52;;
38499;SDS011;24269;51.894;4.622;2023-02-15T09:26:33;44.20;;;21.60;;
38499;SDS011;24269;51.894;4.622;2023-02-15T09:29:01;43.60;;;21.73;;
38499;SDS011;24269;51.894;4.622;2023-02-15T09:31:29;47.35;;;21.70;;
38499;SDS011;24269;51.894;4.622;2023-02-15T09:33:59;40.72;;;20.88;;
38499;SDS011;24269;51.894;4.622;2023-02-15T09:36:27;39.10;;;19.95;;
38499;SDS011;24269;51.894;4.622;2023-02-15T09:39:00;42.00;;;21.08;;
38499;SDS011;24269;51.894;4.622;2023-02-15T09:41:41;39.17;;;19.05;;
38499;SDS011;24269;51.894;4.622;2023-02-15T09:52:32;43.20;;;20.17;;
38499;SDS011;24269;51.894;4.622;2023-02-15T09:58:01;36.33;;;19.20;;
38499;SDS011;24269;51.894;4.622;2023-02-15T10:03:33;40.08;;;20.60;;
38499;SDS011;24269;51.894;4.622;2023-02-15T10:06:11;39.25;;;19.45;;
38499;SDS011;24269;51.894;4.622;2023-02-15T10:11:56;43.75;;;21.48;;
38499;SDS011;24269;51.894;4.622;2023-02-15T10:28:49;41.40;;;20.08;;
38499;SDS011;24269;51.894;4.622;2023-02-15T10:33:48;40.47;;;20.13;;
38499;SDS011;24269;51.894;4.622;2023-02-15T10:42:27;43.72;;;20.60;;
38499;SDS011;24269;51.894;4.622;2023-02-15T10:45:15;43.92;;;20.05;;
38499;SDS011;24269;51.894;4.622;2023-02-15T10:50:57;42.35;;;20.88;;
38499;SDS011;24269;51.894;4.622;2023-02-15T10:56:09;40.13;;;18.50;;
38499;SDS011;24269;51.894;4.622;2023-02-15T10:58:49;41.40;;;20.77;;
38499;SDS011;24269;51.894;4.622;2023-02-15T11:01:59;39.00;;;19.83;;
38499;SDS011;24269;51.894;4.622;2023-02-15T11:05:02;39.90;;;19.98;;
38499;SDS011;24269;51.894;4.622;2023-02-15T11:08:09;42.22;;;19.42;;
38499;SDS011;24269;51.894;4.622;2023-02-15T11:10:38;38.05;;;19.33;;
38499;SDS011;24269;51.894;4.622;2023-02-15T11:13:11;41.55;;;20.48;;
38499;SDS011;24269;51.894;4.622;2023-02-15T11:18:25;38.35;;;19.23;;
38499;SDS011;24269;51.894;4.622;2023-02-15T11:21:06;41.88;;;19.73;;
38499;SDS011;24269;51.894;4.622;2023-02-15T11:23:45;37.35;;;18.92;;
38499;SDS011;24269;51.894;4.622;2023-02-15T11:29:01;37.17;;;18.92;;
38499;SDS011;24269;51.894;4.622;2023-02-15T11:31:51;38.13;;;19.95;;
38499;SDS011;24269;51.894;4.622;2023-02-15T11:36:54;36.25;;;18.73;;
38499;SDS011;24269;51.894;4.622;2023-02-15T11:39:23;39.42;;;19.23;;
38499;SDS011;24269;51.894;4.622;2023-02-15T11:41:55;36.70;;;18.77;;
38499;SDS011;24269;51.894;4.622;2023-02-15T11:44:27;38.70;;;19.92;;
38499;SDS011;24269;51.894;4.622;2023-02-15T11:49:35;38.00;;;17.48;;
38499;SDS011;24269;51.894;4.622;2023-02-15T11:52:04;40.03;;;19.70;;
38499;SDS011;24269;51.894;4.622;2023-02-15T11:54:33;41.25;;;19.75;;
38499;SDS011;24269;51.894;4.622;2023-02-15T11:59:48;39.45;;;19.27;;
38499;SDS011;24269;51.894;4.622;2023-02-15T12:02:19;35.80;;;18.10;;
38499;SDS011;24269;51.894;4.622;2023-02-15T12:04:54;40.15;;;18.27;;
38499;SDS011;24269;51.894;4.622;2023-02-15T12:07:25;37.80;;;18.80;;
38499;SDS011;24269;51.894;4.622;2023-02-15T12:10:20;36.10;;;18.13;;
38499;SDS011;24269;51.894;4.622;2023-02-15T12:12:56;34.88;;;19.08;;
38499;SDS011;24269;51.894;4.622;2023-02-15T12:15:33;37.17;;;18.50;;
38499;SDS011;24269;51.894;4.622;2023-02-15T12:18:15;36.58;;;17.98;;
38499;SDS011;24269;51.894;4.622;2023-02-15T12:20:59;41.70;;;18.58;;
38499;SDS011;24269;51.894;4.622;2023-02-15T12:25:54;36.95;;;18.52;;
38499;SDS011;24269;51.894;4.622;2023-02-15T12:33:57;34.50;;;18.08;;
38499;SDS011;24269;51.894;4.622;2023-02-15T12:36:40;39.25;;;18.70;;
38499;SDS011;24269;51.894;4.622;2023-02-15T12:41:37;36.65;;;17.58;;
38499;SDS011;24269;51.894;4.622;2023-02-15T12:44:18;34.58;;;18.85;;
38499;SDS011;24269;51.894;4.622;2023-02-15T12:49:42;38.00;;;18.52;;
38499;SDS011;24269;51.894;4.622;2023-02-15T12:54:44;35.78;;;18.48;;
38499;SDS011;24269;51.894;4.622;2023-02-15T12:57:14;37.65;;;18.20;;
38499;SDS011;24269;51.894;4.622;2023-02-15T13:02:23;33.30;;;17.88;;
38499;SDS011;24269;51.894;4.622;2023-02-15T13:04:49;34.73;;;17.73;;
38499;SDS011;24269;51.894;4.622;2023-02-15T13:07:16;40.47;;;18.38;;
38499;SDS011;24269;51.894;4.622;2023-02-15T13:09:42;40.88;;;17.10;;
38499;SDS011;24269;51.894;4.622;2023-02-15T13:12:20;33.83;;;17.27;;
38499;SDS011;24269;51.894;4.622;2023-02-15T13:14:52;35.67;;;18.00;;
38499;SDS011;24269;51.894;4.622;2023-02-15T13:17:27;35.30;;;17.10;;
38499;SDS011;24269;51.894;4.622;2023-02-15T13:20:06;35.25;;;17.75;;
38499;SDS011;24269;51.894;4.622;2023-02-15T13:22:45;34.63;;;15.85;;
38499;SDS011;24269;51.894;4.622;2023-02-15T13:25:17;32.47;;;15.82;;
38499;SDS011;24269;51.894;4.622;2023-02-15T13:27:51;32.40;;;16.33;;
38499;SDS011;24269;51.894;4.622;2023-02-15T13:30:27;31.17;;;16.33;;
38499;SDS011;24269;51.894;4.622;2023-02-15T13:33:09;34.40;;;16.02;;
38499;SDS011;24269;51.894;4.622;2023-02-15T13:35:48;36.40;;;17.23;;
38499;SDS011;24269;51.894;4.622;2023-02-15T13:52:23;37.35;;;17.98;;
38499;SDS011;24269;51.894;4.622;2023-02-15T14:09:01;37.10;;;18.17;;
38499;SDS011;24269;51.894;4.622;2023-02-15T14:11:52;37.47;;;18.38;;
38499;SDS011;24269;51.894;4.622;2023-02-15T14:20:08;39.75;;;18.40;;
38499;SDS011;24269;51.894;4.622;2023-02-15T14:23:03;34.90;;;18.33;;
38499;SDS011;24269;51.894;4.622;2023-02-15T14:25:33;37.42;;;19.35;;
38499;SDS011;24269;51.894;4.622;2023-02-15T14:28:11;34.33;;;18.13;;
38499;SDS011;24269;51.894;4.622;2023-02-15T14:35:40;36.78;;;18.70;;
38499;SDS011;24269;51.894;4.622;2023-02-15T14:38:25;35.40;;;18.05;;
38499;SDS011;24269;51.894;4.622;2023-02-15T14:46:51;39.55;;;18.80;;
38499;SDS011;24269;51.894;4.622;2023-02-15T14:52:01;36.47;;;18.88;;
38499;SDS011;24269;51.894;4.622;2023-02-15T14:59:27;39.13;;;19.45;;
38499;SDS011;24269;51.894;4.622;2023-02-15T15:02:30;37.72;;;19.27;;
38499;SDS011;24269;51.894;4.622;2023-02-15T15:07:53;40.90;;;18.95;;
38499;SDS011;24269;51.894;4.622;2023-02-15T15:12:47;39.88;;;19.67;;
38499;SDS011;24269;51.894;4.622;2023-02-15T15:31:18;41.60;;;20.08;;
38499;SDS011;24269;51.894;4.622;2023-02-15T15:42:06;39.13;;;19.60;;
38499;SDS011;24269;51.894;4.622;2023-02-15T15:45:06;42.55;;;19.45;;
38499;SDS011;24269;51.894;4.622;2023-02-15T15:50:56;40.28;;;19.80;;
38499;SDS011;24269;51.894;4.622;2023-02-15T15:53:25;44.15;;;19.90;;
38499;SDS011;24269;51.894;4.622;2023-02-15T15:56:04;40.30;;;19.50;;
38499;SDS011;24269;51.894;4.622;2023-02-15T15:58:35;38.47;;;19.45;;
38499;SDS011;24269;51.894;4.622;2023-02-15T16:01:06;39.53;;;20.20;;
38499;SDS011;24269;51.894;4.622;2023-02-15T16:03:34;43.60;;;20.48;;
38499;SDS011;24269;51.894;4.622;2023-02-15T16:06:00;43.38;;;20.27;;
38499;SDS011;24269;51.894;4.622;2023-02-15T16:08:36;41.90;;;20.15;;
38499;SDS011;24269;51.894;4.622;2023-02-15T16:13:52;44.38;;;20.20;;
38499;SDS011;24269;51.894;4.622;2023-02-15T16:16:22;40.95;;;19.40;;
38499;SDS011;24269;51.894;4.622;2023-02-15T16:18:52;39.28;;;18.88;;
38499;SDS011;24269;51.894;4.622;2023-02-15T16:21:23;44.38;;;20.40;;
38499;SDS011;24269;51.894;4.622;2023-02-15T16:24:04;36.70;;;18.13;;
38499;SDS011;24269;51.894;4.622;2023-02-15T16:29:23;37.13;;;18.48;;
38499;SDS011;24269;51.894;4.622;2023-02-15T16:31:59;39.47;;;18.13;;
38499;SDS011;24269;51.894;4.622;2023-02-15T16:39:56;44.35;;;20.23;;
38499;SDS011;24269;51.894;4.622;2023-02-15T16:42:21;43.15;;;19.45;;
38499;SDS011;24269;51.894;4.622;2023-02-15T16:44:54;42.00;;;19.60;;
38499;SDS011;24269;51.894;4.622;2023-02-15T16:49:59;41.70;;;20.00;;
38499;SDS011;24269;51.894;4.622;2023-02-15T16:52:27;37.90;;;19.15;;
38499;SDS011;24269;51.894;4.622;2023-02-15T16:55:00;41.53;;;17.92;;
38499;SDS011;24269;51.894;4.622;2023-02-15T16:57:33;40.38;;;18.67;;
38499;SDS011;24269;51.894;4.622;2023-02-15T17:00:05;38.50;;;19.42;;
38499;SDS011;24269;51.894;4.622;2023-02-15T17:02:33;37.08;;;18.77;;
38499;SDS011;24269;51.894;4.622;2023-02-15T17:07:42;40.28;;;18.42;;
38499;SDS011;24269;51.894;4.622;2023-02-15T17:10:34;38.40;;;17.77;;
38499;SDS011;24269;51.894;4.622;2023-02-15T17:15:34;38.63;;;18.65;;
38499;SDS011;24269;51.894;4.622;2023-02-15T17:18:03;40.38;;;18.00;;
38499;SDS011;24269;51.894;4.622;2023-02-15T17:20:38;43.30;;;20.10;;
38499;SDS011;24269;51.894;4.622;2023-02-15T17:23:19;39.40;;;18.40;;
38499;SDS011;24269;51.894;4.622;2023-02-15T17:26:18;41.55;;;18.00;;
38499;SDS011;24269;51.894;4.622;2023-02-15T17:28:52;37.92;;;17.75;;
38499;SDS011;24269;51.894;4.622;2023-02-15T17:31:21;41.80;;;18.45;;
38499;SDS011;24269;51.894;4.622;2023-02-15T17:33:56;41.05;;;18.83;;
38499;SDS011;24269;51.894;4.622;2023-02-15T17:36:24;34.00;;;17.27;;
38499;SDS011;24269;51.894;4.622;2023-02-15T17:41:22;36.97;;;16.73;;
38499;SDS011;24269;51.894;4.622;2023-02-15T17:43:54;40.00;;;18.40;;
38499;SDS011;24269;51.894;4.622;2023-02-15T17:46:20;39.63;;;18.90;;
38499;SDS011;24269;51.894;4.622;2023-02-15T17:48:53;37.03;;;16.80;;
38499;SDS011;24269;51.894;4.622;2023-02-15T17:51:20;37.67;;;18.42;;
38499;SDS011;24269;51.894;4.622;2023-02-15T17:53:46;35.65;;;17.88;;
38499;SDS011;24269;51.894;4.622;2023-02-15T17:56:34;38.72;;;18.08;;
38499;SDS011;24269;51.894;4.622;2023-02-15T17:59:01;37.80;;;18.20;;
38499;SDS011;24269;51.894;4.622;2023-02-15T18:01:31;41.17;;;18.08;;
38499;SDS011;24269;51.894;4.622;2023-02-15T18:04:16;40.53;;;17.55;;
38499;SDS011;24269;51.894;4.622;2023-02-15T18:07:01;41.53;;;19.17;;
38499;SDS011;24269;51.894;4.622;2023-02-15T18:09:45;38.08;;;18.30;;
38499;SDS011;24269;51.894;4.622;2023-02-15T18:12:33;41.28;;;18.00;;
38499;SDS011;24269;51.894;4.622;2023-02-15T18:15:04;37.45;;;18.33;;
38499;SDS011;24269;51.894;4.622;2023-02-15T18:17:32;38.78;;;19.30;;
38499;SDS011;24269;51.894;4.622;2023-02-15T18:20:30;40.33;;;19.38;;
38499;SDS011;24269;51.894;4.622;2023-02-15T18:23:00;39.90;;;18.98;;
38499;SDS011;24269;51.894;4.622;2023-02-15T18:25:26;39.70;;;19.42;;
38499;SDS011;24269;51.894;4.622;2023-02-15T18:27:52;38.03;;;18.05;;
38499;SDS011;24269;51.894;4.622;2023-02-15T18:30:19;39.03;;;19.52;;
38499;SDS011;24269;51.894;4.622;2023-02-15T18:32:47;40.00;;;19.10;;